createdAt,value
2022-09-15T00:02:15.403Z,11.63
2022-09-15T00:04:44.988Z,9.57
2022-09-15T00:07:14.782Z,9.63
2022-09-15T00:09:45.411Z,9.38
2022-09-15T00:12:14.065Z,9.85
2022-09-15T00:14:43.655Z,10.40
2022-09-15T00:17:12.569Z,9.43
2022-09-15T00:19:41.090Z,10.10
2022-09-15T00:22:11.496Z,9.13
2022-09-15T00:24:44.072Z,9.05
2022-09-15T00:27:13.257Z,9.68
2022-09-15T00:29:42.634Z,9.60
2022-09-15T00:32:12.701Z,9.45
2022-09-15T00:34:41.249Z,9.95
2022-09-15T00:37:11.204Z,10.10
2022-09-15T00:39:39.900Z,9.18
2022-09-15T00:42:08.242Z,9.85
2022-09-15T00:44:48.136Z,9.60
2022-09-15T00:47:21.632Z,10.93
2022-09-15T00:49:52.477Z,11.82
2022-09-15T00:52:25.073Z,12.18
2022-09-15T00:54:56.975Z,12.55
2022-09-15T00:57:41.856Z,11.60
2022-09-15T01:00:12.980Z,15.10
2022-09-15T01:03:00.651Z,13.85
2022-09-15T01:05:31.989Z,14.63
2022-09-15T01:08:02.921Z,13.70
2022-09-15T01:10:39.604Z,12.50
2022-09-15T01:13:08.982Z,14.27
2022-09-15T01:15:40.197Z,14.82
2022-09-15T01:18:15.859Z,14.65
2022-09-15T01:20:44.189Z,14.23
2022-09-15T01:23:26.557Z,13.02
2022-09-15T01:26:03.455Z,13.57
2022-09-15T01:28:39.453Z,13.45
2022-09-15T01:31:26.159Z,12.45
2022-09-15T01:34:03.153Z,13.32
2022-09-15T01:36:37.025Z,12.57
2022-09-15T01:41:55.679Z,13.18
2022-09-15T01:44:25.760Z,12.02
2022-09-15T01:46:56.324Z,13.05
2022-09-15T01:49:27.613Z,12.55
2022-09-15T01:54:29.717Z,12.27
2022-09-15T01:57:00.008Z,11.45
2022-09-15T01:59:29.705Z,13.00
2022-09-15T02:02:04.590Z,11.98
2022-09-15T02:04:41.150Z,13.07
2022-09-15T02:07:21.808Z,13.07
2022-09-15T02:09:54.614Z,13.43
2022-09-15T02:12:33.821Z,13.20
2022-09-15T02:15:05.393Z,13.65
2022-09-15T02:17:43.746Z,13.10
2022-09-15T02:20:18.825Z,13.82
2022-09-15T02:23:08.610Z,15.85
2022-09-15T02:25:43.305Z,14.18
2022-09-15T02:28:14.949Z,14.15
2022-09-15T02:30:46.577Z,16.50
2022-09-15T02:33:20.492Z,15.85
2022-09-15T02:35:51.781Z,16.02
2022-09-15T02:38:21.642Z,16.58
2022-09-15T02:40:50.084Z,16.50
2022-09-15T02:43:19.515Z,16.63
2022-09-15T02:45:49.567Z,16.67
2022-09-15T02:48:18.733Z,16.90
2022-09-15T02:50:48.004Z,17.77
2022-09-15T02:53:16.860Z,19.38
2022-09-15T02:55:45.981Z,17.48
2022-09-15T02:58:15.208Z,18.02
2022-09-15T03:00:47.707Z,18.05
2022-09-15T03:03:34.575Z,17.20
2022-09-15T03:06:17.262Z,16.33
2022-09-15T03:08:51.504Z,16.70
2022-09-15T03:11:21.701Z,17.58
2022-09-15T03:13:54.397Z,16.85
2022-09-15T03:16:23.247Z,17.33
2022-09-15T03:18:52.279Z,15.85
2022-09-15T03:21:23.410Z,16.00
2022-09-15T03:23:54.816Z,17.00
2022-09-15T03:26:23.838Z,16.40
2022-09-15T03:28:52.085Z,16.75
2022-09-15T03:31:20.832Z,20.00
2022-09-15T03:33:49.843Z,18.02
2022-09-15T03:36:17.973Z,16.55
2022-09-15T03:38:50.921Z,20.25
2022-09-15T03:41:21.897Z,19.85
2022-09-15T03:43:54.823Z,18.92
2022-09-15T03:46:23.508Z,20.58
2022-09-15T03:48:53.296Z,20.60
2022-09-15T03:51:22.085Z,20.75
2022-09-15T03:53:50.940Z,19.88
2022-09-15T03:56:28.041Z,21.98
2022-09-15T03:58:58.999Z,21.23
2022-09-15T04:01:31.398Z,19.73
2022-09-15T04:04:02.013Z,20.17
2022-09-15T04:06:35.809Z,20.27
2022-09-15T04:09:06.761Z,21.13
2022-09-15T04:11:38.227Z,20.15
2022-09-15T04:14:08.488Z,20.25
2022-09-15T04:16:37.129Z,19.70
2022-09-15T04:19:07.966Z,19.98
2022-09-15T04:21:37.510Z,20.85
2022-09-15T04:24:06.151Z,21.13
2022-09-15T04:26:36.090Z,19.55
2022-09-15T04:29:07.289Z,20.58
2022-09-15T04:31:36.501Z,18.98
2022-09-15T04:34:06.872Z,18.90
2022-09-15T04:36:35.086Z,19.77
2022-09-15T04:39:05.341Z,19.90
2022-09-15T04:41:35.169Z,20.88
2022-09-15T04:44:04.365Z,19.08
2022-09-15T04:46:34.315Z,20.83
2022-09-15T04:49:04.323Z,20.83
2022-09-15T04:51:34.554Z,23.52
2022-09-15T04:54:02.716Z,23.45
2022-09-15T04:56:35.798Z,21.53
2022-09-15T04:59:05.580Z,21.85
2022-09-15T05:01:36.280Z,20.35
2022-09-15T05:04:05.889Z,21.63
2022-09-15T05:06:37.169Z,21.25
2022-09-15T05:09:10.230Z,21.95
2022-09-15T05:11:39.173Z,19.48
2022-09-15T05:14:08.156Z,20.42
2022-09-15T05:16:37.089Z,20.95
2022-09-15T05:19:06.513Z,23.75
2022-09-15T05:21:37.482Z,22.58
2022-09-15T05:24:07.677Z,23.02
2022-09-15T05:26:39.693Z,21.90
2022-09-15T05:29:10.095Z,23.83
2022-09-15T05:31:38.360Z,22.65
2022-09-15T05:34:08.139Z,22.60
2022-09-15T05:36:44.873Z,22.52
2022-09-15T05:39:13.931Z,21.60
2022-09-15T05:41:42.326Z,24.58
2022-09-15T05:44:11.325Z,23.75
2022-09-15T05:46:39.979Z,21.73
2022-09-15T05:49:11.639Z,21.20
2022-09-15T05:51:40.368Z,19.90
2022-09-15T05:54:09.423Z,22.15
2022-09-15T05:56:38.990Z,21.98
2022-09-15T05:59:09.005Z,20.45
2022-09-15T06:01:38.033Z,22.55
2022-09-15T06:04:07.933Z,22.30
2022-09-15T06:06:39.519Z,20.40
2022-09-15T06:09:09.850Z,23.23
2022-09-15T06:11:38.979Z,22.67
2022-09-15T06:14:08.464Z,21.73
2022-09-15T06:16:36.894Z,23.10
2022-09-15T06:19:06.361Z,23.13
2022-09-15T06:21:34.635Z,24.90
2022-09-15T06:24:04.472Z,24.90
2022-09-15T06:26:35.542Z,23.95
2022-09-15T06:29:12.617Z,24.67
2022-09-15T06:31:48.718Z,23.45
2022-09-15T06:34:18.952Z,25.77
2022-09-15T06:36:47.470Z,22.98
2022-09-15T06:39:18.330Z,26.73
2022-09-15T06:42:05.898Z,25.55
2022-09-15T06:44:35.903Z,24.08
2022-09-15T06:47:15.437Z,24.95
2022-09-15T06:49:44.572Z,25.20
2022-09-15T06:52:12.782Z,24.25
2022-09-15T06:54:44.078Z,26.88
2022-09-15T06:57:13.222Z,25.60
2022-09-15T06:59:43.721Z,27.15
2022-09-15T07:02:11.982Z,27.02
2022-09-15T07:04:44.473Z,27.58
2022-09-15T07:07:12.880Z,27.52
2022-09-15T07:09:42.799Z,27.60
2022-09-15T07:12:14.926Z,26.60
2022-09-15T07:14:43.763Z,31.55
2022-09-15T07:17:12.231Z,29.23
2022-09-15T07:19:41.514Z,28.35
2022-09-15T07:22:16.008Z,28.77
2022-09-15T07:24:45.250Z,30.58
2022-09-15T07:27:17.642Z,30.38
2022-09-15T07:29:47.535Z,30.73
2022-09-15T07:32:29.841Z,30.58
2022-09-15T07:34:59.768Z,31.48
2022-09-15T07:37:28.647Z,33.28
2022-09-15T07:39:58.183Z,37.67
2022-09-15T07:42:26.784Z,39.88
2022-09-15T07:44:55.508Z,36.90
2022-09-15T07:47:23.862Z,38.45
2022-09-15T07:49:53.016Z,38.00
2022-09-15T07:52:21.497Z,38.97
2022-09-15T07:54:50.387Z,40.20
2022-09-15T07:57:24.115Z,38.80
2022-09-15T07:59:52.479Z,37.60
2022-09-15T08:02:22.325Z,37.90
2022-09-15T08:04:50.784Z,38.10
2022-09-15T08:07:19.158Z,37.72
2022-09-15T08:09:47.326Z,38.75
2022-09-15T08:12:18.047Z,38.17
2022-09-15T08:14:48.955Z,37.22
2022-09-15T08:17:18.683Z,36.42
2022-09-15T08:19:50.144Z,34.58
2022-09-15T08:22:19.728Z,35.38
2022-09-15T08:24:48.165Z,34.88
2022-09-15T08:27:17.505Z,36.05
2022-09-15T08:29:47.329Z,34.05
2022-09-15T08:32:15.751Z,34.70
2022-09-15T08:34:44.099Z,33.42
2022-09-15T08:37:14.822Z,31.17
2022-09-15T08:39:47.372Z,30.13
2022-09-15T08:42:17.568Z,30.23
2022-09-15T08:45:04.012Z,28.05
2022-09-15T08:47:35.014Z,27.25
2022-09-15T08:50:22.954Z,26.25
2022-09-15T08:52:53.405Z,23.45
2022-09-15T08:55:21.524Z,25.90
2022-09-15T08:57:53.226Z,25.75
2022-09-15T09:00:21.965Z,24.00
2022-09-15T09:03:09.491Z,21.73
2022-09-15T09:05:56.577Z,19.77
2022-09-15T09:08:36.764Z,17.58
2022-09-15T09:11:11.295Z,13.77
2022-09-15T09:13:47.556Z,12.60
2022-09-15T09:16:24.848Z,12.20
2022-09-15T09:18:52.810Z,11.35
2022-09-15T09:21:37.587Z,12.18
2022-09-15T09:24:07.764Z,8.30
2022-09-15T09:26:37.501Z,7.85
2022-09-15T09:29:19.968Z,7.50
2022-09-15T09:31:50.256Z,5.53
2022-09-15T09:34:45.242Z,6.10
2022-09-15T09:37:16.320Z,5.55
2022-09-15T09:39:46.659Z,3.85
2022-09-15T09:42:18.315Z,3.60
2022-09-15T09:44:48.524Z,3.97
2022-09-15T09:47:17.309Z,3.08
2022-09-15T09:49:49.367Z,2.95
2022-09-15T09:52:33.358Z,2.50
2022-09-15T09:55:03.709Z,1.98
2022-09-15T09:57:40.494Z,2.42
2022-09-15T10:00:32.096Z,2.90
2022-09-15T10:03:21.129Z,3.30
2022-09-15T10:06:02.000Z,1.77
2022-09-15T10:08:30.967Z,2.63
2022-09-15T10:11:06.614Z,1.60
2022-09-15T10:13:36.041Z,2.03
2022-09-15T10:16:06.444Z,2.10
2022-09-15T10:18:38.766Z,2.20
2022-09-15T10:21:11.022Z,1.42
2022-09-15T10:23:39.223Z,1.92
2022-09-15T10:26:27.928Z,1.73
2022-09-15T10:29:15.079Z,1.10
2022-09-15T10:31:44.554Z,1.40
2022-09-15T10:34:33.975Z,1.10
2022-09-15T10:37:19.764Z,1.20
2022-09-15T10:39:55.362Z,0.80
2022-09-15T10:42:28.938Z,1.33
2022-09-15T10:45:03.006Z,1.92
2022-09-15T10:47:39.926Z,0.93
2022-09-15T10:50:17.991Z,1.50
2022-09-15T10:52:51.935Z,1.10
2022-09-15T10:55:48.561Z,1.10
2022-09-15T10:58:27.445Z,1.05
2022-09-15T11:01:10.304Z,1.10
2022-09-15T11:03:50.446Z,2.13
2022-09-15T11:06:37.332Z,1.70
2022-09-15T11:09:10.284Z,1.38
2022-09-15T11:11:42.316Z,1.60
2022-09-15T11:14:18.253Z,1.50
2022-09-15T11:16:49.326Z,2.20
2022-09-15T11:19:35.808Z,2.58
2022-09-15T11:22:15.577Z,1.30
2022-09-15T11:24:47.924Z,1.33
2022-09-15T11:27:15.992Z,0.95
2022-09-15T11:29:53.087Z,2.50
2022-09-15T11:32:26.971Z,1.40
2022-09-15T11:34:59.235Z,1.48
2022-09-15T11:37:47.753Z,2.25
2022-09-15T11:40:18.437Z,2.67
2022-09-15T11:43:01.575Z,1.58
2022-09-15T11:45:35.492Z,2.63
2022-09-15T11:48:19.272Z,1.90
2022-09-15T11:50:50.868Z,1.45
2022-09-15T11:53:45.637Z,1.38
2022-09-15T11:56:19.679Z,1.70
2022-09-15T11:59:06.445Z,1.52
2022-09-15T12:01:42.181Z,1.50
2022-09-15T12:04:20.459Z,2.05
2022-09-15T12:07:09.872Z,1.80
2022-09-15T12:09:40.907Z,1.58
2022-09-15T12:12:13.452Z,1.90
2022-09-15T12:14:44.409Z,1.60
2022-09-15T12:17:18.502Z,1.70
2022-09-15T12:19:56.702Z,2.30
2022-09-15T12:22:58.693Z,2.00
2022-09-15T12:25:34.406Z,1.77
2022-09-15T12:28:21.875Z,1.60
2022-09-15T12:31:11.277Z,2.13
2022-09-15T12:33:59.858Z,2.92
2022-09-15T12:36:34.156Z,3.15
2022-09-15T12:39:03.202Z,2.75
2022-09-15T12:41:32.252Z,2.25
2022-09-15T12:44:15.519Z,2.55
2022-09-15T12:46:53.575Z,2.10
2022-09-15T12:49:36.554Z,2.75
2022-09-15T12:52:17.366Z,1.90
2022-09-15T12:54:57.965Z,2.55
2022-09-15T12:57:31.758Z,1.98
2022-09-15T13:00:19.998Z,1.48
2022-09-15T13:03:04.459Z,1.08
2022-09-15T13:05:54.133Z,1.10
2022-09-15T13:08:25.816Z,0.80
2022-09-15T13:11:01.892Z,1.20
2022-09-15T13:13:40.700Z,1.20
2022-09-15T13:16:11.431Z,1.25
2022-09-15T13:18:39.797Z,1.27
2022-09-15T13:21:13.737Z,1.55
2022-09-15T13:23:44.670Z,1.08
2022-09-15T13:26:16.488Z,1.50
2022-09-15T13:28:45.312Z,1.30
2022-09-15T13:31:35.344Z,2.13
2022-09-15T13:40:52.879Z,1.10
2022-09-15T13:43:56.199Z,1.05
2022-09-15T13:46:24.124Z,1.48
2022-09-15T13:49:24.343Z,1.00
2022-09-15T13:52:03.867Z,1.00
2022-09-15T13:54:32.088Z,2.13
2022-09-15T13:57:01.980Z,1.30
2022-09-15T13:59:32.607Z,1.70
2022-09-15T14:02:08.949Z,1.35
2022-09-15T14:04:43.362Z,1.65
2022-09-15T14:07:20.940Z,1.38
2022-09-15T14:09:50.361Z,2.20
2022-09-15T14:12:22.848Z,1.58
2022-09-15T14:14:54.640Z,1.48
2022-09-15T14:17:32.104Z,1.90
2022-09-15T14:20:04.781Z,3.10
2022-09-15T14:22:36.112Z,7.13
2022-09-15T14:25:09.103Z,3.17
2022-09-15T14:27:45.390Z,1.70
2022-09-15T14:30:19.494Z,1.42
2022-09-15T14:33:02.795Z,1.52
2022-09-15T14:35:36.779Z,1.52
2022-09-15T14:38:05.486Z,2.77
2022-09-15T14:40:38.334Z,1.10
2022-09-15T14:43:24.963Z,1.15
2022-09-15T14:46:02.287Z,1.48
2022-09-15T14:48:34.193Z,1.75
2022-09-15T14:51:03.734Z,1.40
2022-09-15T14:53:35.829Z,1.50
2022-09-15T14:56:12.815Z,2.20
2022-09-15T14:58:44.456Z,1.58
2022-09-15T15:01:21.734Z,0.90
2022-09-15T15:03:57.909Z,1.08
2022-09-15T15:06:29.839Z,1.05
2022-09-15T15:09:03.241Z,1.20
2022-09-15T15:11:34.223Z,0.88
2022-09-15T15:14:06.604Z,1.30
2022-09-15T15:16:35.602Z,1.10
2022-09-15T15:19:05.850Z,1.10
2022-09-15T15:21:40.724Z,1.27
2022-09-15T15:24:15.492Z,1.73
2022-09-15T15:26:44.984Z,2.13
2022-09-15T15:29:31.976Z,1.10
2022-09-15T15:32:20.490Z,1.10
2022-09-15T15:34:49.788Z,0.90
2022-09-15T15:37:28.994Z,1.10
2022-09-15T15:40:02.111Z,1.20
2022-09-15T15:42:35.314Z,1.05
2022-09-15T15:45:10.171Z,1.58
2022-09-15T15:47:45.481Z,2.75
2022-09-15T15:50:15.096Z,1.40
2022-09-15T15:52:52.545Z,2.15
2022-09-15T15:55:25.279Z,1.02
2022-09-15T15:57:55.375Z,0.80
2022-09-15T16:00:30.394Z,1.65
2022-09-15T16:03:19.069Z,1.40
2022-09-15T16:06:08.424Z,1.00
2022-09-15T16:08:39.771Z,0.90
2022-09-15T16:11:12.283Z,0.75
2022-09-15T16:13:41.720Z,0.80
2022-09-15T16:16:14.941Z,1.55
2022-09-15T16:18:43.454Z,0.82
2022-09-15T16:21:17.509Z,1.10
2022-09-15T16:23:46.769Z,1.33
2022-09-15T16:26:21.440Z,0.82
2022-09-15T16:28:51.363Z,1.63
2022-09-15T16:31:25.163Z,0.80
2022-09-15T16:33:54.442Z,1.60
2022-09-15T16:36:23.572Z,1.30
2022-09-15T16:38:53.586Z,1.35
2022-09-15T16:41:25.526Z,1.10
2022-09-15T16:43:56.753Z,1.43
2022-09-15T16:46:28.263Z,1.23
2022-09-15T16:49:00.106Z,1.30
2022-09-15T16:51:31.679Z,1.30
2022-09-15T16:54:01.361Z,1.17
2022-09-15T16:56:34.023Z,1.00
2022-09-15T16:59:05.030Z,0.70
2022-09-15T17:01:36.529Z,0.80
2022-09-15T17:04:13.117Z,1.10
2022-09-15T17:06:43.405Z,1.00
2022-09-15T17:09:14.244Z,0.85
2022-09-15T17:11:43.055Z,0.80
2022-09-15T17:14:16.307Z,1.00
2022-09-15T17:16:52.705Z,0.65
2022-09-15T17:19:21.631Z,1.42
2022-09-15T17:21:52.691Z,1.98
2022-09-15T17:24:21.375Z,2.67
2022-09-15T17:26:49.980Z,0.85
2022-09-15T17:29:18.207Z,0.65
2022-09-15T17:31:48.049Z,0.80
2022-09-15T17:34:19.610Z,0.50
2022-09-15T17:39:22.520Z,0.52
2022-09-15T17:41:50.929Z,0.55
2022-09-15T17:44:20.699Z,0.90
2022-09-15T17:46:50.671Z,3.35
2022-09-15T17:49:20.828Z,0.90
2022-09-15T17:51:51.655Z,1.35
2022-09-15T17:54:19.964Z,0.80
2022-09-15T17:56:48.232Z,0.85
2022-09-15T17:59:19.225Z,0.90
2022-09-15T18:01:47.982Z,1.00
2022-09-15T18:04:18.937Z,0.60
2022-09-15T18:06:48.329Z,0.80
2022-09-15T18:09:17.798Z,0.93
2022-09-15T18:11:55.323Z,0.73
2022-09-15T18:14:26.699Z,1.83
2022-09-15T18:16:59.073Z,4.07
2022-09-15T18:19:27.419Z,2.65
2022-09-15T18:21:57.146Z,4.63
2022-09-15T18:24:28.363Z,0.90
2022-09-15T18:27:06.256Z,0.70
2022-09-15T18:29:40.503Z,0.85
2022-09-15T18:32:10.580Z,1.05
2022-09-15T18:34:39.888Z,0.85
2022-09-15T18:37:08.784Z,2.60
2022-09-15T18:39:38.512Z,1.20
2022-09-15T18:42:12.132Z,0.88
2022-09-15T18:44:44.876Z,0.80
2022-09-15T18:47:13.377Z,0.75
2022-09-15T18:49:41.907Z,0.50
2022-09-15T18:52:10.452Z,0.90
2022-09-15T18:54:42.274Z,0.90
2022-09-15T18:57:12.351Z,1.13
2022-09-15T18:59:40.537Z,1.02
2022-09-15T19:02:14.409Z,0.73
2022-09-15T19:04:42.938Z,1.00
2022-09-15T19:09:45.636Z,0.68
2022-09-15T19:14:54.829Z,1.48
2022-09-15T19:17:25.979Z,4.18
2022-09-15T19:19:55.802Z,1.38
2022-09-15T19:22:24.151Z,1.30
2022-09-15T19:25:01.109Z,0.95
2022-09-15T19:27:31.449Z,0.75
2022-09-15T19:30:00.702Z,1.40
2022-09-15T19:32:33.441Z,0.93
2022-09-15T19:35:02.447Z,1.35
2022-09-15T19:37:39.837Z,1.05
2022-09-15T19:40:13.718Z,0.90
2022-09-15T19:42:54.586Z,1.42
2022-09-15T19:45:23.637Z,1.25
2022-09-15T19:48:08.394Z,1.23
2022-09-15T19:50:39.370Z,0.75
2022-09-15T19:53:12.016Z,0.70
2022-09-15T19:55:40.488Z,0.70
2022-09-15T19:58:10.677Z,0.60
2022-09-15T20:00:40.865Z,0.82
2022-09-15T20:03:26.756Z,1.10
2022-09-15T20:05:56.803Z,0.98
2022-09-15T20:08:27.974Z,0.70
2022-09-15T20:13:31.862Z,1.00
2022-09-15T20:16:01.971Z,0.73
2022-09-15T20:18:36.567Z,0.82
2022-09-15T20:21:08.179Z,0.98
2022-09-15T20:23:37.294Z,0.68
2022-09-15T20:26:10.479Z,0.90
2022-09-15T20:28:39.738Z,0.90
2022-09-15T20:31:17.189Z,1.00
2022-09-15T20:33:47.817Z,1.15
2022-09-15T20:36:17.476Z,1.10
2022-09-15T20:38:49.497Z,0.90
2022-09-15T20:41:18.505Z,1.00
2022-09-15T20:43:46.756Z,1.10
2022-09-15T20:46:17.504Z,0.75
2022-09-15T20:48:46.892Z,1.00
2022-09-15T20:51:26.752Z,0.90
2022-09-15T20:53:55.957Z,0.63
2022-09-15T20:56:26.651Z,0.90
2022-09-15T20:58:56.642Z,0.70
2022-09-15T21:01:28.501Z,0.80
2022-09-15T21:04:01.814Z,0.80
2022-09-15T21:06:33.225Z,1.33
2022-09-15T21:09:05.552Z,1.48
2022-09-15T21:11:39.774Z,0.88
2022-09-15T21:14:08.757Z,0.80
2022-09-15T21:16:37.377Z,0.93
2022-09-15T21:19:09.411Z,0.80
2022-09-15T21:21:40.242Z,1.67
2022-09-15T21:24:09.567Z,0.80
2022-09-15T21:27:00.907Z,0.77
2022-09-15T21:29:31.536Z,0.70
2022-09-15T21:32:00.822Z,1.65
2022-09-15T21:34:31.667Z,0.88
2022-09-15T21:37:01.052Z,1.33
2022-09-15T21:39:29.749Z,0.75
2022-09-15T21:41:58.707Z,1.23
2022-09-15T21:44:28.811Z,1.00
2022-09-15T21:46:58.367Z,1.10
2022-09-15T21:49:27.697Z,0.73
2022-09-15T21:51:57.485Z,0.80
2022-09-15T21:54:26.484Z,0.70
2022-09-15T21:56:55.365Z,0.95
2022-09-15T21:59:24.492Z,0.88
2022-09-15T22:01:53.379Z,0.68
2022-09-15T22:04:22.081Z,0.80
2022-09-15T22:06:52.417Z,0.85
2022-09-15T22:09:21.982Z,0.93
2022-09-15T22:11:54.225Z,1.13
2022-09-15T22:14:25.240Z,0.88
2022-09-15T22:16:55.449Z,1.70
2022-09-15T22:19:24.234Z,1.15
2022-09-15T22:21:53.678Z,1.40
2022-09-15T22:24:22.169Z,1.08
2022-09-15T22:26:50.844Z,1.38
2022-09-15T22:29:19.375Z,1.80
2022-09-15T22:31:49.936Z,2.08
2022-09-15T22:34:20.262Z,1.80
2022-09-15T22:36:49.136Z,1.60
2022-09-15T22:39:17.887Z,2.00
2022-09-15T22:41:46.576Z,1.85
2022-09-15T22:44:19.733Z,1.70
2022-09-15T22:46:54.398Z,1.90
2022-09-15T22:49:22.877Z,2.10
2022-09-15T22:51:51.226Z,2.00
2022-09-15T22:54:19.854Z,1.95
2022-09-15T22:56:48.538Z,1.52
2022-09-15T22:59:17.818Z,2.15
2022-09-15T23:01:46.914Z,1.60
2022-09-15T23:04:15.560Z,2.28
2022-09-15T23:06:44.676Z,1.75
2022-09-15T23:09:13.376Z,1.60
2022-09-15T23:11:42.121Z,1.75
2022-09-15T23:14:15.883Z,1.50
2022-09-15T23:16:45.666Z,1.60
2022-09-15T23:19:14.657Z,2.28
2022-09-15T23:21:43.216Z,1.42
2022-09-15T23:24:14.011Z,2.08
2022-09-15T23:26:46.193Z,1.75
2022-09-15T23:29:16.783Z,1.70
2022-09-15T23:31:45.249Z,1.48
2022-09-15T23:34:15.011Z,0.88
2022-09-15T23:36:44.186Z,1.15
2022-09-15T23:39:15.033Z,1.88
2022-09-15T23:41:45.220Z,1.17
2022-09-15T23:44:16.496Z,1.75
2022-09-15T23:46:46.854Z,2.25
2022-09-15T23:49:18.704Z,2.50
2022-09-15T23:51:47.878Z,2.38
2022-09-15T23:54:19.061Z,2.53
2022-09-15T23:56:48.990Z,2.60
2022-09-15T23:59:17.693Z,2.63
